Portada
METAR-TAF:

METAR-TAF

Aeroports :

Arar, Aràbia Saudita

latitud: 30-54N, longitud: 041-08E, altitud: 555 m

Observació

L'informe es va fer fa 41 minuts, a les 13:00 UTC
Vent 10 kt del Oest/Sud-Oest
Temperatura 42°C
Humitat 6%
Pressió 1007 hPa
Visibilitat 10 km o més
sense núvols per sota de 1500 mi sense presència de cumulonimbus.

METAR: OERR 211300Z 24010KT CAVOK 42/M03 Q1007 NOSIG

Hora: 16:41 (13:41 UTC)

Pronòstic

L'informe es va fer fa 2 hores i 41 minuts, a les 11:00 UTC
Pronòstic vàlid del 21 a les 12 UTC al 22 a les 18 UTC
Vent 13 kt del Oest/Sud-Oest
Visibilitat: 8000 m
Evolucionant progressivament
l' 21 a les 18 UTC al 21 a les 20 UTC
Vent 6 kt del Oest/Nord-Oest

TAF: OERR 211100Z 2112/2218 25013KT 8000 NSC BECMG 2118/2120 30006KT

Observacions i pronòstics meteorològics de més de 4000 aeroports (METAR i TAF).

Les estacions disponibles són els punts grocs i vermells al mapa.

Posi el ratolí al punt desitjat per veure el nom de l'estació.

Feu clic per veure les observacions i els pronòstics meteorològics.

Per canviar el mapa: feu clic els botons verds amb una creu de color negre per apropar; al botó verd amb un guió per allunyar la imatge; o en les fletxes verdes per a mapes adjacents.


METAR-TAF: